Time;durP1;ratioP1;P1;durP2;ratioP2;P2;SDS_P1;SDS_P2;PMS_P1;PMS_P2;Temp;Humidity;BMP_temperature;BMP_pressure;BME280_temperature;BME280_humidity;BME280_pressure;Samples;Min_cycle;Max_cycle;Signal;HPM_P1;HPM_P2
2023/04/07 00:00:51;;;;;;;9.97;8.67;;;;;;;-145.52;100.00;65322.94;5122551;28;20478;-64
2023/04/07 00:03:18;;;;;;;11.70;9.07;;;;;;;-145.52;100.00;65322.94;5122694;28;20450;-64
2023/04/07 00:05:45;;;;;;;10.47;8.60;;;;;;;-145.52;100.00;65322.94;5122128;28;20482;-65
2023/04/07 00:08:12;;;;;;;9.63;8.63;;;;;;;-145.52;100.00;65322.94;5122910;28;20450;-65
2023/04/07 00:10:38;;;;;;;11.40;8.13;;;;;;;-145.52;100.00;65322.94;5123280;28;20802;-65
2023/04/07 00:13:06;;;;;;;10.33;8.97;;;;;;;-145.52;100.00;65322.94;5123461;28;20485;-64
2023/04/07 00:15:33;;;;;;;10.00;7.80;;;;;;;-145.52;100.00;65322.94;5122713;28;20496;-65
2023/04/07 00:18:00;;;;;;;11.30;8.83;;;;;;;-145.52;100.00;65322.94;5122768;28;20489;-65
2023/04/07 00:20:26;;;;;;;9.50;8.33;;;;;;;-145.52;100.00;65322.94;5121619;28;20581;-65
2023/04/07 00:22:53;;;;;;;12.00;9.20;;;;;;;-145.52;100.00;65322.94;5123748;28;20457;-65
2023/04/07 00:25:19;;;;;;;9.50;8.37;;;;;;;-145.52;100.00;65322.94;5122482;28;20505;-65
2023/04/07 00:27:46;;;;;;;10.10;7.93;;;;;;;-145.52;100.00;65322.94;5122885;28;20518;-65
2023/04/07 00:30:15;;;;;;;10.97;8.20;;;;;;;-145.52;100.00;65322.94;5122174;28;20922;-65
2023/04/07 00:32:41;;;;;;;12.03;8.93;;;;;;;-145.52;100.00;65322.94;5121511;28;20468;-65
2023/04/07 00:35:09;;;;;;;9.30;8.40;;;;;;;-145.52;100.00;65322.94;5122139;28;20458;-65
2023/04/07 00:37:36;;;;;;;11.90;8.70;;;;;;;-145.52;100.00;65322.94;5123074;28;20454;-65
2023/04/07 00:40:03;;;;;;;12.03;8.43;;;;;;;-145.52;100.00;65322.94;5122529;28;20515;-65
2023/04/07 00:42:30;;;;;;;11.83;8.90;;;;;;;-145.52;100.00;65322.94;5121388;28;20537;-65
2023/04/07 00:44:56;;;;;;;10.37;8.60;;;;;;;-145.52;100.00;65322.94;5123202;28;20446;-65
2023/04/07 00:47:24;;;;;;;10.60;8.37;;;;;;;-145.52;100.00;65322.94;5121983;28;20509;-65
2023/04/07 00:49:51;;;;;;;11.33;8.80;;;;;;;-145.52;100.00;65322.94;5121954;28;20500;-64
2023/04/07 00:52:25;;;;;;;10.43;8.40;;;;;;;-145.52;100.00;65322.94;5117981;28;20578;-65
2023/04/07 00:54:52;;;;;;;12.47;9.03;;;;;;;-145.52;100.00;65322.94;5122647;28;20452;-65
2023/04/07 00:57:19;;;;;;;9.57;8.13;;;;;;;-145.52;100.00;65322.94;5120964;28;20477;-64
2023/04/07 00:59:45;;;;;;;11.00;8.33;;;;;;;-145.52;100.00;65322.94;5122667;28;20472;-65
2023/04/07 01:02:16;;;;;;;8.90;8.00;;;;;;;-145.52;100.00;65322.94;5121919;28;20545;-65
2023/04/07 01:04:47;;;;;;;9.97;8.13;;;;;;;-145.52;100.00;65322.94;5121609;28;20441;-65
2023/04/07 01:07:21;;;;;;;11.07;8.07;;;;;;;-145.52;100.00;65322.94;5121840;28;20581;-65
2023/04/07 01:09:55;;;;;;;10.63;8.20;;;;;;;-145.52;100.00;65322.94;5121923;28;20735;-64
2023/04/07 01:12:25;;;;;;;10.27;8.00;;;;;;;-145.52;100.00;65322.94;5121765;28;20481;-64
2023/04/07 01:14:55;;;;;;;12.63;8.40;;;;;;;-145.52;100.00;65322.94;5122617;28;20506;-64
2023/04/07 01:17:23;;;;;;;9.37;7.97;;;;;;;-145.52;100.00;65322.94;5120980;28;20512;-65
2023/04/07 01:19:56;;;;;;;9.00;7.80;;;;;;;-145.52;100.00;65322.94;5120178;28;20967;-65
2023/04/07 01:22:27;;;;;;;10.03;8.20;;;;;;;-145.52;100.00;65322.94;5121658;28;20990;-65
2023/04/07 01:25:10;;;;;;;9.20;8.00;;;;;;;-145.52;100.00;65322.94;5121576;28;20445;-64
2023/04/07 01:27:43;;;;;;;9.60;8.00;;;;;;;-145.52;100.00;65322.94;5115839;28;20485;-64
2023/04/07 01:30:12;;;;;;;9.43;7.60;;;;;;;-145.52;100.00;65322.94;5120421;28;20478;-64
2023/04/07 01:32:40;;;;;;;8.77;7.87;;;;;;;-145.52;100.00;65322.94;5121793;28;20530;-64
2023/04/07 01:35:10;;;;;;;8.80;7.20;;;;;;;-145.52;100.00;65322.94;5120240;28;20513;-65
2023/04/07 01:37:37;;;;;;;12.57;8.37;;;;;;;-145.52;100.00;65322.94;5120078;28;20438;-64
2023/04/07 01:40:05;;;;;;;10.40;7.20;;;;;;;-145.52;100.00;65322.94;5121874;28;20533;-64
2023/04/07 01:42:32;;;;;;;7.40;6.43;;;;;;;-145.52;100.00;65322.94;5121050;28;20837;-65
2023/04/07 01:45:00;;;;;;;13.53;8.37;;;;;;;-145.52;100.00;65322.94;5116080;28;20461;-65
2023/04/07 01:47:29;;;;;;;10.00;7.77;;;;;;;-145.52;100.00;65322.94;5120762;28;20541;-65
2023/04/07 01:49:57;;;;;;;10.07;8.17;;;;;;;-145.52;100.00;65322.94;5121022;28;20480;-65
2023/04/07 01:52:24;;;;;;;9.37;7.07;;;;;;;-145.52;100.00;65322.94;5120924;28;20477;-64
2023/04/07 01:54:51;;;;;;;9.13;8.10;;;;;;;-145.52;100.00;65322.94;5114177;28;20470;-65
2023/04/07 01:57:18;;;;;;;10.70;7.47;;;;;;;-145.52;100.00;65322.94;5120309;28;20482;-65
2023/04/07 01:59:44;;;;;;;7.70;6.83;;;;;;;-145.52;100.00;65322.94;5120735;28;20723;-65
2023/04/07 02:02:11;;;;;;;9.57;7.10;;;;;;;-145.52;100.00;65322.94;5120341;28;20982;-65
2023/04/07 02:04:45;;;;;;;9.90;7.20;;;;;;;-145.52;100.00;65322.94;5121071;28;20572;-65
2023/04/07 02:07:17;;;;;;;9.17;7.00;;;;;;;-145.52;100.00;65322.94;5120527;28;20493;-66
2023/04/07 02:09:45;;;;;;;10.57;7.40;;;;;;;-145.52;100.00;65322.94;5121500;28;20442;-66
2023/04/07 02:12:13;;;;;;;9.53;7.37;;;;;;;-145.52;100.00;65322.94;5117882;28;20482;-66
2023/04/07 02:14:40;;;;;;;9.73;8.43;;;;;;;-145.52;100.00;65322.94;5121122;28;20472;-66
2023/04/07 02:17:07;;;;;;;10.50;8.53;;;;;;;-145.52;100.00;65322.94;5111711;28;20488;-66
2023/04/07 02:19:34;;;;;;;9.00;7.80;;;;;;;-145.52;100.00;65322.94;5120003;28;20486;-66
2023/04/07 02:22:03;;;;;;;8.73;7.47;;;;;;;-145.52;100.00;65322.94;5120236;28;20481;-66
2023/04/07 02:24:30;;;;;;;10.43;8.40;;;;;;;-145.52;100.00;65322.94;5120670;28;20446;-66
2023/04/07 02:26:56;;;;;;;11.93;9.20;;;;;;;-145.52;100.00;65322.94;5119844;28;21224;-66
2023/04/07 02:29:23;;;;;;;11.70;9.10;;;;;;;-145.52;100.00;65322.94;5121102;28;20468;-66
2023/04/07 02:31:50;;;;;;;11.40;8.30;;;;;;;-145.52;100.00;65322.94;5119592;28;20504;-65
2023/04/07 02:34:16;;;;;;;11.60;8.60;;;;;;;-145.52;100.00;65322.94;5120283;28;20458;-65
2023/04/07 02:36:43;;;;;;;8.77;7.80;;;;;;;-145.52;100.00;65322.94;5120593;28;20577;-66
2023/04/07 02:39:11;;;;;;;9.53;8.27;;;;;;;-145.52;100.00;65322.94;5120898;28;20480;-65
2023/04/07 02:41:38;;;;;;;9.60;8.60;;;;;;;-145.52;100.00;65322.94;5119819;28;20482;-65
2023/04/07 02:44:05;;;;;;;12.53;9.10;;;;;;;-145.52;100.00;65322.94;5120831;28;20517;-65
2023/04/07 02:46:31;;;;;;;9.40;7.80;;;;;;;-145.52;100.00;65322.94;5119768;28;20474;-63
2023/04/07 02:48:58;;;;;;;8.43;7.60;;;;;;;-145.52;100.00;65322.94;5120685;28;20485;-65
2023/04/07 02:51:25;;;;;;;9.77;8.07;;;;;;;-145.52;100.00;65322.94;5119428;28;20535;-65
2023/04/07 02:53:52;;;;;;;8.93;7.47;;;;;;;-145.52;100.00;65322.94;5120943;28;20458;-64
2023/04/07 02:56:20;;;;;;;11.27;8.43;;;;;;;-145.52;100.00;65322.94;5120077;28;20530;-65
2023/04/07 02:58:47;;;;;;;10.57;8.70;;;;;;;-145.52;100.00;65322.94;5120038;28;20482;-65
2023/04/07 03:01:13;;;;;;;10.70;8.83;;;;;;;-145.52;100.00;65322.94;5119749;28;20509;-65
2023/04/07 03:03:41;;;;;;;11.27;8.30;;;;;;;-145.52;100.00;65322.94;5120146;28;20991;-64
2023/04/07 03:06:07;;;;;;;9.40;8.03;;;;;;;-145.52;100.00;65322.94;5119966;28;20528;-65
2023/04/07 03:08:34;;;;;;;10.40;8.23;;;;;;;-145.52;100.00;65322.94;5120098;28;20515;-65
2023/04/07 03:11:01;;;;;;;11.27;8.40;;;;;;;-145.52;100.00;65322.94;5120679;28;20523;-65
2023/04/07 03:13:29;;;;;;;9.93;8.37;;;;;;;-145.52;100.00;65322.94;5120832;28;20860;-65
2023/04/07 03:15:56;;;;;;;9.70;8.63;;;;;;;-145.52;100.00;65322.94;5120029;28;20478;-64
2023/04/07 03:18:23;;;;;;;12.77;9.17;;;;;;;-145.52;100.00;65322.94;5120499;28;20446;-65
2023/04/07 03:20:51;;;;;;;10.37;9.20;;;;;;;-145.52;100.00;65322.94;5118794;28;20510;-65
2023/04/07 03:23:18;;;;;;;10.93;8.03;;;;;;;-145.52;100.00;65322.94;5120582;28;20949;-64
2023/04/07 03:25:45;;;;;;;9.87;8.00;;;;;;;-145.52;100.00;65322.94;5120076;28;20831;-65
2023/04/07 03:28:11;;;;;;;10.07;8.47;;;;;;;-145.52;100.00;65322.94;5120151;28;20555;-65
2023/04/07 03:30:39;;;;;;;12.33;8.73;;;;;;;-145.52;100.00;65322.94;5119036;28;21042;-65
2023/04/07 03:33:06;;;;;;;9.27;8.27;;;;;;;-145.52;100.00;65322.94;5120542;28;20458;-65
2023/04/07 03:35:33;;;;;;;11.60;8.80;;;;;;;-145.52;100.00;65322.94;5119605;28;20458;-66
2023/04/07 03:37:59;;;;;;;11.40;9.00;;;;;;;-145.52;100.00;65322.94;5119826;28;21018;-66
2023/04/07 03:40:26;;;;;;;15.23;9.07;;;;;;;-145.52;100.00;65322.94;5119293;28;20524;-64
2023/04/07 03:42:52;;;;;;;10.70;9.07;;;;;;;-145.52;100.00;65322.94;5120678;28;20481;-65
2023/04/07 03:45:19;;;;;;;10.30;8.77;;;;;;;-145.52;100.00;65322.94;5123267;28;20489;-65
2023/04/07 03:47:47;;;;;;;9.30;7.83;;;;;;;-145.52;100.00;65322.94;5123258;28;20481;-65
2023/04/07 03:50:14;;;;;;;9.93;8.70;;;;;;;-145.52;100.00;65322.94;5122838;28;20481;-65
2023/04/07 03:52:41;;;;;;;9.90;8.90;;;;;;;-145.52;100.00;65322.94;5124116;28;20450;-65
2023/04/07 03:55:08;;;;;;;11.97;9.77;;;;;;;-145.52;100.00;65322.94;5123440;28;20446;-66
2023/04/07 03:57:35;;;;;;;13.00;10.07;;;;;;;-145.52;100.00;65322.94;5122972;28;20955;-66
2023/04/07 04:00:02;;;;;;;10.47;8.00;;;;;;;-145.52;100.00;65322.94;5123514;28;20478;-66
2023/04/07 04:02:29;;;;;;;11.83;9.63;;;;;;;-145.52;100.00;65322.94;5121600;28;20476;-66
2023/04/07 04:04:57;;;;;;;11.27;8.40;;;;;;;-145.52;100.00;65322.94;5123135;28;20489;-66
2023/04/07 04:07:25;;;;;;;11.83;8.90;;;;;;;-145.52;100.00;65322.94;5122467;28;20549;-66
2023/04/07 04:09:51;;;;;;;10.67;8.90;;;;;;;-145.52;100.00;65322.94;5123182;28;20477;-65
2023/04/07 04:12:18;;;;;;;13.80;9.80;;;;;;;-145.52;100.00;65322.94;5122841;28;20854;-66
2023/04/07 04:14:45;;;;;;;13.47;8.73;;;;;;;-145.52;100.00;65322.94;5123222;28;20509;-66
2023/04/07 04:17:11;;;;;;;21.03;10.47;;;;;;;-145.52;100.00;65322.94;5122522;28;20765;-66
2023/04/07 04:19:38;;;;;;;14.17;10.47;;;;;;;-145.52;100.00;65322.94;5121905;28;20501;-66
2023/04/07 04:22:06;;;;;;;18.23;10.00;;;;;;;-145.52;100.00;65322.94;5122774;28;20476;-66
2023/04/07 04:24:33;;;;;;;14.10;11.03;;;;;;;-145.52;100.00;65322.94;5123021;28;20481;-66
2023/04/07 04:27:00;;;;;;;13.83;11.10;;;;;;;-145.52;100.00;65322.94;5122668;28;20557;-65
2023/04/07 04:29:27;;;;;;;14.40;10.73;;;;;;;-145.52;100.00;65322.94;5123028;28;20458;-64
2023/04/07 04:31:53;;;;;;;13.77;11.63;;;;;;;-145.52;100.00;65322.94;5122528;28;20501;-65
2023/04/07 04:34:20;;;;;;;15.00;11.67;;;;;;;-145.52;100.00;65322.94;5122500;28;20477;-65
2023/04/07 04:36:47;;;;;;;16.23;11.43;;;;;;;-145.52;100.00;65322.94;5121711;28;20509;-65
2023/04/07 04:39:15;;;;;;;16.43;13.23;;;;;;;-145.52;100.00;65322.94;5122893;28;20468;-65
2023/04/07 04:41:42;;;;;;;17.50;12.27;;;;;;;-145.52;100.00;65322.94;5121975;28;20565;-64
2023/04/07 04:44:09;;;;;;;20.60;12.20;;;;;;;-145.52;100.00;65322.94;5122891;28;20470;-65
2023/04/07 04:46:35;;;;;;;17.30;13.20;;;;;;;-145.52;100.00;65322.94;5122165;28;20474;-65
2023/04/07 04:49:02;;;;;;;23.50;14.13;;;;;;;-145.52;100.00;65322.94;5122094;28;20557;-64
2023/04/07 04:51:29;;;;;;;20.57;14.30;;;;;;;-145.52;100.00;65322.94;5121826;28;20578;-65
2023/04/07 04:53:55;;;;;;;19.07;13.70;;;;;;;-145.52;100.00;65322.94;5121921;28;20482;-64
2023/04/07 04:56:23;;;;;;;19.23;14.83;;;;;;;-145.52;100.00;65322.94;5121805;28;20474;-65
2023/04/07 04:58:50;;;;;;;19.30;13.70;;;;;;;-145.52;100.00;65322.94;5120675;28;20493;-64
2023/04/07 05:01:16;;;;;;;18.80;13.60;;;;;;;-145.52;100.00;65322.94;5121791;28;20929;-64
2023/04/07 05:03:43;;;;;;;18.60;13.83;;;;;;;-145.52;100.00;65322.94;5121554;28;21038;-64
2023/04/07 05:06:10;;;;;;;22.00;16.23;;;;;;;-145.52;100.00;65322.94;5122199;28;20501;-64
2023/04/07 05:08:36;;;;;;;23.00;15.50;;;;;;;-145.52;100.00;65322.94;5122436;28;20524;-65
2023/04/07 05:11:03;;;;;;;21.13;16.10;;;;;;;-145.52;100.00;65322.94;5122534;28;20474;-65
2023/04/07 05:13:31;;;;;;;21.17;15.63;;;;;;;-145.52;100.00;65322.94;5122399;28;20530;-65
2023/04/07 05:15:57;;;;;;;23.07;15.80;;;;;;;-145.52;100.00;65322.94;5121406;28;20492;-65
2023/04/07 05:18:24;;;;;;;21.57;14.20;;;;;;;-145.52;100.00;65322.94;5122027;28;20487;-66
2023/04/07 05:20:51;;;;;;;20.10;13.90;;;;;;;-145.52;100.00;65322.94;5120901;28;20497;-66
2023/04/07 05:23:17;;;;;;;16.87;12.90;;;;;;;-145.52;100.00;65322.94;5122805;28;20461;-66
2023/04/07 05:25:44;;;;;;;19.00;14.53;;;;;;;-145.52;100.00;65322.94;5120704;28;20494;-65
2023/04/07 05:28:11;;;;;;;20.80;14.30;;;;;;;-145.52;100.00;65322.94;5122353;28;20509;-64
2023/04/07 05:30:39;;;;;;;19.00;14.43;;;;;;;-145.52;100.00;65322.94;5121122;28;20476;-64
2023/04/07 05:33:05;;;;;;;18.60;12.77;;;;;;;-145.52;100.00;65322.94;5122262;28;20452;-64
2023/04/07 05:35:32;;;;;;;16.57;13.90;;;;;;;-145.52;100.00;65322.94;5120806;27;20485;-63
2023/04/07 05:37:58;;;;;;;20.70;15.60;;;;;;;-145.52;100.00;65322.94;5121937;28;20546;-64
2023/04/07 05:40:25;;;;;;;19.63;14.20;;;;;;;-145.52;100.00;65322.94;5116834;28;20513;-65
2023/04/07 05:42:52;;;;;;;22.23;15.07;;;;;;;-145.52;100.00;65322.94;5120331;28;20494;-65
2023/04/07 05:45:18;;;;;;;22.00;14.73;;;;;;;-145.52;100.00;65322.94;5120779;28;20475;-64
2023/04/07 05:47:48;;;;;;;20.63;14.70;;;;;;;-145.52;100.00;65322.94;5120074;28;20513;-65
2023/04/07 05:50:15;;;;;;;23.93;17.23;;;;;;;-145.52;100.00;65322.94;5118584;28;20458;-65
2023/04/07 05:52:42;;;;;;;23.50;17.37;;;;;;;-145.52;100.00;65322.94;5121410;28;20461;-65
2023/04/07 05:55:09;;;;;;;28.83;18.23;;;;;;;-145.52;100.00;65322.94;5121055;28;20477;-64
2023/04/07 05:57:36;;;;;;;23.90;17.73;;;;;;;-145.52;100.00;65322.94;5121233;28;20474;-65
2023/04/07 06:00:03;;;;;;;26.60;19.47;;;;;;;-145.52;100.00;65322.94;5121113;28;20987;-64
2023/04/07 06:02:30;;;;;;;26.00;20.27;;;;;;;-145.52;100.00;65322.94;5120177;28;21029;-64
2023/04/07 06:04:58;;;;;;;28.17;20.63;;;;;;;-145.52;100.00;65322.94;5120511;28;21060;-65
2023/04/07 06:07:24;;;;;;;26.53;20.20;;;;;;;-145.52;100.00;65322.94;5120425;28;20604;-64
2023/04/07 06:09:51;;;;;;;29.10;21.23;;;;;;;-145.52;100.00;65322.94;5121226;28;20457;-65
2023/04/07 06:12:18;;;;;;;32.30;22.27;;;;;;;-145.52;100.00;65322.94;5121263;28;21219;-65
2023/04/07 06:14:47;;;;;;;28.83;20.30;;;;;;;-145.52;100.00;65322.94;5121491;28;20476;-65
2023/04/07 06:17:14;;;;;;;31.07;20.07;;;;;;;-145.52;100.00;65322.94;5110114;28;20474;-65
2023/04/07 06:19:41;;;;;;;28.10;20.50;;;;;;;-145.52;100.00;65322.94;5119145;28;20663;-65
2023/04/07 06:22:09;;;;;;;30.40;19.97;;;;;;;-145.52;100.00;65322.94;5121347;28;20481;-65
2023/04/07 06:24:36;;;;;;;29.33;19.60;;;;;;;-145.52;100.00;65322.94;5121557;28;20450;-64
2023/04/07 06:27:03;;;;;;;33.13;20.40;;;;;;;-145.52;100.00;65322.94;5121019;28;20493;-65
2023/04/07 06:29:30;;;;;;;27.83;19.37;;;;;;;-145.52;100.00;65322.94;5121529;28;20482;-65
2023/04/07 06:31:57;;;;;;;30.47;19.97;;;;;;;-145.52;100.00;65322.94;5120322;28;20502;-65
2023/04/07 06:34:23;;;;;;;27.30;19.13;;;;;;;-145.52;100.00;65322.94;5120171;28;20454;-65
2023/04/07 06:36:50;;;;;;;30.80;18.50;;;;;;;-145.52;100.00;65322.94;5120439;28;20470;-65
2023/04/07 06:39:18;;;;;;;28.70;18.10;;;;;;;-145.52;100.00;65322.94;5120232;28;20446;-65
2023/04/07 06:41:46;;;;;;;26.87;19.37;;;;;;;-145.52;100.00;65322.94;5115685;28;20485;-65
2023/04/07 06:44:13;;;;;;;26.73;19.93;;;;;;;-145.52;100.00;65322.94;5120388;28;20471;-66
2023/04/07 06:46:41;;;;;;;24.13;18.63;;;;;;;-145.52;100.00;65322.94;5120351;28;20497;-66
2023/04/07 06:49:09;;;;;;;25.23;16.83;;;;;;;-145.52;100.00;65322.94;5119270;28;20484;-70
2023/04/07 06:51:35;;;;;;;26.20;18.80;;;;;;;-145.52;100.00;65322.94;5119643;28;20591;-70
2023/04/07 06:54:04;;;;;;;25.27;16.37;;;;;;;-145.52;100.00;65322.94;5120147;28;20922;-71
2023/04/07 06:56:33;;;;;;;23.93;18.90;;;;;;;-145.52;100.00;65322.94;5120121;28;20482;-70
2023/04/07 06:59:00;;;;;;;25.00;17.63;;;;;;;-145.52;100.00;65322.94;5111831;28;20477;-70
2023/04/07 07:01:27;;;;;;;21.67;16.97;;;;;;;-145.52;100.00;65322.94;5111547;28;20482;-70
2023/04/07 07:03:54;;;;;;;20.70;15.57;;;;;;;-145.52;100.00;65322.94;5119219;28;20450;-71
2023/04/07 07:06:21;;;;;;;18.80;15.70;;;;;;;-145.52;100.00;65322.94;5119486;28;20472;-70
2023/04/07 07:08:50;;;;;;;21.07;16.00;;;;;;;-145.52;100.00;65322.94;5119659;28;20584;-70
2023/04/07 07:11:19;;;;;;;25.43;13.43;;;;;;;-145.52;100.00;65322.94;5120322;28;20909;-71
2023/04/07 07:13:47;;;;;;;21.77;15.50;;;;;;;-145.52;100.00;65322.94;5120791;28;20467;-71
2023/04/07 07:16:13;;;;;;;18.70;14.80;;;;;;;-145.52;100.00;65322.94;5119721;28;20999;-71
2023/04/07 07:18:40;;;;;;;17.37;13.27;;;;;;;-145.52;100.00;65322.94;5121225;28;20507;-70
2023/04/07 07:21:07;;;;;;;19.97;14.80;;;;;;;-145.52;100.00;65322.94;5122304;28;20470;-70
2023/04/07 07:23:33;;;;;;;17.00;13.10;;;;;;;-145.52;100.00;65322.94;5123904;28;20533;-70
2023/04/07 07:26:00;;;;;;;17.13;13.50;;;;;;;-145.52;100.00;65322.94;5122868;28;20986;-69
2023/04/07 07:28:28;;;;;;;17.00;13.30;;;;;;;-145.52;100.00;65322.94;5124299;28;20488;-69
2023/04/07 07:30:56;;;;;;;18.70;13.43;;;;;;;-145.52;100.00;65322.94;5122361;28;20480;-71
2023/04/07 07:33:22;;;;;;;17.57;12.67;;;;;;;-145.52;100.00;65322.94;5124087;28;20449;-70
2023/04/07 07:35:49;;;;;;;14.43;11.23;;;;;;;-145.52;100.00;65322.94;5123256;28;20549;-70
2023/04/07 07:38:16;;;;;;;16.10;12.10;;;;;;;-145.52;100.00;65322.94;5123937;28;20963;-69
2023/04/07 07:40:42;;;;;;;15.93;12.30;;;;;;;-145.52;100.00;65322.94;5123115;28;20508;-69
2023/04/07 07:43:09;;;;;;;13.20;11.03;;;;;;;-145.52;100.00;65322.94;5118538;28;20446;-69
2023/04/07 07:45:36;;;;;;;12.40;10.50;;;;;;;-145.52;100.00;65322.94;5123761;28;20477;-70
2023/04/07 07:48:04;;;;;;;12.50;9.57;;;;;;;-145.52;100.00;65322.94;5123756;28;20547;-70
2023/04/07 07:50:30;;;;;;;10.23;8.07;;;;;;;-145.52;100.00;65322.94;5122577;28;20473;-69
2023/04/07 07:52:57;;;;;;;9.77;8.37;;;;;;;-145.52;100.00;65322.94;5123595;28;20478;-70
2023/04/07 07:55:24;;;;;;;8.93;7.50;;;;;;;-145.52;100.00;65322.94;5123350;28;20457;-69
2023/04/07 07:57:50;;;;;;;9.57;7.50;;;;;;;-145.52;100.00;65322.94;5123703;28;20446;-69
2023/04/07 08:00:17;;;;;;;9.37;8.10;;;;;;;-145.52;100.00;65322.94;5122032;28;20481;-70
2023/04/07 08:02:44;;;;;;;10.10;7.50;;;;;;;-145.52;100.00;65322.94;5124049;28;20603;-70
2023/04/07 08:05:12;;;;;;;8.47;6.67;;;;;;;-145.52;100.00;65322.94;5122146;28;20515;-70
2023/04/07 08:07:39;;;;;;;6.57;5.93;;;;;;;-145.52;100.00;65322.94;5124161;28;20962;-69
2023/04/07 08:10:06;;;;;;;6.77;6.07;;;;;;;-145.52;100.00;65322.94;5122188;28;20486;-70
2023/04/07 08:12:33;;;;;;;7.60;5.50;;;;;;;-145.52;100.00;65322.94;5120971;28;20454;-70
2023/04/07 08:15:00;;;;;;;7.93;6.43;;;;;;;-145.52;100.00;65322.94;5122839;28;20473;-69
2023/04/07 08:17:26;;;;;;;8.40;6.63;;;;;;;-145.52;100.00;65322.94;5121178;28;21018;-69
2023/04/07 08:19:53;;;;;;;8.60;6.30;;;;;;;-145.52;100.00;65322.94;5121075;28;20484;-69
2023/04/07 08:22:21;;;;;;;7.37;5.83;;;;;;;-145.52;100.00;65322.94;5121983;28;20570;-70
2023/04/07 08:24:47;;;;;;;8.73;6.60;;;;;;;-145.52;100.00;65322.94;5122817;28;20498;-70
2023/04/07 08:27:14;;;;;;;7.57;6.20;;;;;;;-145.52;100.00;65322.94;5120726;28;20533;-70
2023/04/07 08:29:41;;;;;;;7.90;6.73;;;;;;;-145.52;100.00;65322.94;5121932;28;20510;-69
2023/04/07 08:32:07;;;;;;;8.50;6.20;;;;;;;-145.52;100.00;65322.94;5121411;28;20510;-69
2023/04/07 08:34:34;;;;;;;9.00;7.37;;;;;;;-145.52;100.00;65322.94;5121407;28;20511;-69
2023/04/07 08:37:01;;;;;;;7.97;7.13;;;;;;;-145.52;100.00;65322.94;5122070;28;20505;-71
2023/04/07 08:39:29;;;;;;;7.03;6.33;;;;;;;-145.52;100.00;65322.94;5122172;28;20885;-70
2023/04/07 08:41:55;;;;;;;9.17;7.07;;;;;;;-145.52;100.00;65322.94;5115015;28;20501;-70
2023/04/07 08:44:23;;;;;;;7.63;6.83;;;;;;;-145.52;100.00;65322.94;5122131;28;20503;-70
2023/04/07 08:46:51;;;;;;;7.87;6.83;;;;;;;-145.52;100.00;65322.94;5121040;28;20466;-70
2023/04/07 08:49:17;;;;;;;7.23;6.10;;;;;;;-145.52;100.00;65322.94;5120743;28;20482;-70
2023/04/07 08:51:46;;;;;;;10.23;6.77;;;;;;;-145.52;100.00;65322.94;5120926;28;20466;-70
2023/04/07 08:54:14;;;;;;;6.80;6.10;;;;;;;-145.52;100.00;65322.94;5122027;28;20434;-71
2023/04/07 08:56:43;;;;;;;12.13;7.10;;;;;;;-145.52;100.00;65322.94;5120815;28;20542;-70
2023/04/07 08:59:11;;;;;;;8.47;7.23;;;;;;;-145.52;100.00;65322.94;5121123;28;20454;-71
2023/04/07 09:01:39;;;;;;;7.73;6.90;;;;;;;-145.52;100.00;65322.94;5115771;28;20629;-71
2023/04/07 09:04:07;;;;;;;8.90;7.20;;;;;;;-145.52;100.00;65322.94;5121095;28;20457;-71
2023/04/07 09:06:34;;;;;;;7.20;6.50;;;;;;;-145.52;100.00;65322.94;5120655;28;20478;-70
2023/04/07 09:09:01;;;;;;;8.07;6.13;;;;;;;-145.52;100.00;65322.94;5121068;28;20482;-70
2023/04/07 09:11:28;;;;;;;7.40;6.10;;;;;;;-145.52;100.00;65322.94;5119316;28;20982;-70
2023/04/07 09:13:57;;;;;;;6.80;6.20;;;;;;;-145.52;100.00;65322.94;5120838;28;20434;-71
2023/04/07 09:16:25;;;;;;;8.63;6.00;;;;;;;-145.52;100.00;65322.94;5120845;28;20488;-70
2023/04/07 09:18:53;;;;;;;6.90;6.07;;;;;;;-145.52;100.00;65322.94;5120116;28;20842;-71
2023/04/07 09:21:19;;;;;;;8.30;6.40;;;;;;;-145.52;100.00;65322.94;5119537;28;20807;-70
2023/04/07 09:23:47;;;;;;;6.47;5.53;;;;;;;-145.52;100.00;65322.94;5120695;28;20450;-69
2023/04/07 09:26:21;;;;;;;7.43;6.03;;;;;;;-145.52;100.00;65322.94;5119694;28;20478;-71
2023/04/07 09:28:50;;;;;;;7.10;5.97;;;;;;;-145.52;100.00;65322.94;5120937;28;20488;-67
2023/04/07 09:31:20;;;;;;;8.43;5.30;;;;;;;-145.52;100.00;65322.94;5119569;28;20853;-75
2023/04/07 09:33:46;;;;;;;7.40;6.00;;;;;;;-145.52;100.00;65322.94;5120041;28;20457;-75
2023/04/07 09:36:13;;;;;;;5.93;5.33;;;;;;;-145.52;100.00;65322.94;5111084;28;20475;-74
2023/04/07 09:38:42;;;;;;;7.13;6.10;;;;;;;-145.52;100.00;65322.94;5119391;28;20462;-73
2023/04/07 09:41:10;;;;;;;8.47;6.07;;;;;;;-145.52;100.00;65322.94;5115606;28;20555;-74
2023/04/07 09:43:38;;;;;;;6.43;5.83;;;;;;;-145.52;100.00;65322.94;5120151;28;20463;-75
2023/04/07 09:46:12;;;;;;;6.33;5.40;;;;;;;-145.52;100.00;65322.94;5119454;28;20472;-75
2023/04/07 09:48:40;;;;;;;5.50;5.00;;;;;;;-145.52;100.00;65322.94;5120104;28;20524;-75
2023/04/07 09:51:08;;;;;;;7.13;6.43;;;;;;;-145.52;100.00;65322.94;5119079;28;20497;-75
2023/04/07 09:53:46;;;;;;;6.60;5.17;;;;;;;-145.52;100.00;65322.94;5121025;28;20431;-75
2023/04/07 09:56:15;;;;;;;5.73;5.23;;;;;;;-145.52;100.00;65322.94;5119088;28;20470;-74
2023/04/07 09:58:42;;;;;;;6.80;5.63;;;;;;;-145.52;100.00;65322.94;5120526;28;20484;-75
2023/04/07 10:01:09;;;;;;;7.13;4.97;;;;;;;-145.52;100.00;65322.94;5120408;28;20493;-75
2023/04/07 10:03:36;;;;;;;5.13;4.63;;;;;;;-145.52;100.00;65322.94;5121569;28;20450;-77
2023/04/07 10:06:05;;;;;;;8.03;5.23;;;;;;;-145.52;100.00;65322.94;5120465;28;20477;-73
2023/04/07 10:08:33;;;;;;;6.20;5.13;;;;;;;-145.52;100.00;65322.94;5120348;28;20450;-74
2023/04/07 10:11:01;;;;;;;5.57;5.00;;;;;;;-145.52;100.00;65322.94;5119150;28;20471;-72
2023/04/07 10:13:29;;;;;;;5.83;5.27;;;;;;;-145.52;100.00;65322.94;5120330;28;20513;-76
2023/04/07 10:15:56;;;;;;;6.30;4.50;;;;;;;-145.52;100.00;65322.94;5119891;28;20470;-74
2023/04/07 10:18:23;;;;;;;5.30;4.77;;;;;;;-145.52;100.00;65322.94;5119630;28;20473;-76
2023/04/07 10:20:50;;;;;;;6.20;5.57;;;;;;;-145.52;100.00;65322.94;5119685;28;20503;-75
2023/04/07 10:23:21;;;;;;;5.70;5.10;;;;;;;-145.52;100.00;65322.94;5121013;28;20469;-74
2023/04/07 10:25:48;;;;;;;6.67;6.07;;;;;;;-145.52;100.00;65322.94;5118878;28;20491;-73
2023/04/07 10:28:16;;;;;;;7.70;5.70;;;;;;;-145.52;100.00;65322.94;5119854;28;20446;-75
2023/04/07 10:30:44;;;;;;;7.17;6.30;;;;;;;-145.52;100.00;65322.94;5119257;28;20506;-75
2023/04/07 10:33:11;;;;;;;6.80;5.47;;;;;;;-145.52;100.00;65322.94;5119878;28;20817;-76
2023/04/07 10:36:03;;;;;;;7.00;6.30;;;;;;;-145.52;100.00;65322.94;5118095;28;20474;-75
2023/04/07 10:38:31;;;;;;;5.93;5.33;;;;;;;-145.52;100.00;65322.94;5113039;28;20488;-75
2023/04/07 10:40:58;;;;;;;6.60;6.00;;;;;;;-145.52;100.00;65322.94;5118832;28;20506;-77
2023/04/07 10:43:43;;;;;;;6.47;5.30;;;;;;;-145.52;100.00;65322.94;5120442;28;20455;-76
2023/04/07 10:46:10;;;;;;;6.23;5.63;;;;;;;-145.52;100.00;65322.94;5116501;28;20498;-76
2023/04/07 10:48:37;;;;;;;6.50;5.90;;;;;;;-145.52;100.00;65322.94;5118808;28;20454;-74
2023/04/07 10:51:20;;;;;;;6.00;5.40;;;;;;;-145.52;100.00;65322.94;5118651;28;20485;-75
2023/04/07 10:54:22;;;;;;;8.43;6.40;;;;;;;-145.52;100.00;65322.94;5116314;28;20458;-76
2023/04/07 10:57:09;;;;;;;7.20;6.50;;;;;;;-145.52;100.00;65322.94;5117532;28;20482;-75
2023/04/07 10:59:36;;;;;;;6.93;6.23;;;;;;;-145.52;100.00;65322.94;5116098;28;20442;-76
2023/04/07 11:02:32;;;;;;;7.07;6.37;;;;;;;-145.52;100.00;65322.94;5119147;28;20485;-75
2023/04/07 11:04:59;;;;;;;6.60;5.90;;;;;;;-145.52;100.00;65322.94;5123257;28;20517;-75